Geervliet — PCLI — position and weather

sailwx.info

Track history (hours):
 
Tides and Currents Weather Stations Pressure Air Temp Water Temp Dewpoint Dewpoint Depression Visibility Wind Speed Wind Dir Waves Ship Positions

Geervliet

Last reported at 2016-May-31 15:33 UTC. Time now 2016-May-31 16:11 UTC.
Position N 37°41' E 024°31'.

Length 86 m; draft 4.3 m.

Type: Ship. MMSI: 246803000.

Date/timePositionNaut miles runAvg speedWind from/ knotsBaromVisibWave heightAir tempDewpointWater temp
2016-May-31 15:33N 37°41' E 024°31'1610.8
2016-May-31 14:05N 37°27' E 024°21'610.9
2016-May-31 13:33N 37°23' E 024°16'1110.8
2016-May-31 12:33N 37°15' E 024°07'1111.1
2016-May-31 11:33N 37°06' E 023°59'1111.1
2016-May-31 10:33N 36°57' E 023°50'1110.9
2016-May-31 09:33N 36°49' E 023°41'1111.0
2016-May-31 08:33N 36°40' E 023°33'1110.8
2016-May-31 07:33N 36°32' E 023°24'16110.7
2016-May-30 16:33N 36°20' E 020°05'1211.5
2016-May-30 15:29N 36°21' E 019°49'14611.2
2016-May-30 02:29N 36°23' E 016°48'1210.8
2016-May-30 01:23N 36°23' E 016°34'910.6
2016-May-30 00:33N 36°23' E 016°23'1110.6
2016-May-29 23:33N 36°23' E 016°10'2210.7
2016-May-29 21:30N 36°23' E 015°42'1011.0
2016-May-29 20:33N 36°24' E 015°29'1111.2
2016-May-29 19:33N 36°24' E 015°15'1111.5
2016-May-29 18:33N 36°25' E 015°01'1211.6
2016-May-29 17:33N 36°28' E 014°48'1111.2
2016-May-29 16:33N 36°31' E 014°34'1211.9
2016-May-29 15:33N 36°35' E 014°20'1212.0
2016-May-29 14:34N 36°38' E 014°06'1211.8
2016-May-29 13:33N 36°42' E 013°52'1211.9
2016-May-29 12:33N 36°45' E 013°37'1211.8
2016-May-29 11:32N 36°48' E 013°23'1111.6
2016-May-29 10:33N 36°52' E 013°09'1211.6
2016-May-29 09:29N 36°55' E 012°55'1111.6
2016-May-29 08:33N 36°59' E 012°42'7211.5
2016-May-29 02:15N 37°20' E 011°15'811.5
2016-May-29 01:33N 37°23' E 011°06'1110.9
2016-May-29 00:33N 37°26' E 010°52'1110.7
2016-May-28 23:32N 37°29' E 010°39'2311.0
2016-May-28 21:28N 37°33' E 010°11'1111.6
2016-May-28 20:33N 37°32' E 009°58'1211.6
2016-May-28 19:32N 37°29' E 009°44'1111.3
2016-May-28 18:32N 37°26' E 009°30'17511.0
2016-May-28 02:33N 37°12' E 005°50'8911.2
2016-May-27 18:33N 37°01' E 003°59'10111.2
2016-May-27 09:33N 36°48' E 001°54'2711.6
2016-May-27 07:11N 36°43' E 001°20'6711.9
2016-May-27 01:32N 36°32' W 000°03'1511.4
2016-May-27 00:13N 36°30' W 000°22'811.7
2016-May-26 23:32N 36°29' W 000°31'1211.9
2016-May-26 22:30N 36°27' W 000°47'21511.3
2016-May-26 03:27N 36°00' W 005°11'1213.6
2016-May-26 02:33N 35°58' W 005°26'1510.9
2016-May-26 01:12N 35°54' W 005°43'232 5.0
2016-May-24 02:33N 37°47' W 009°56'1010.5
2016-May-24 01:33N 37°57' W 009°59'1010.3
2016-May-24 00:33N 38°07' W 010°02'1110.8
2016-May-23 23:33N 38°17' W 010°05'1111.0
2016-May-23 22:33N 38°28' W 010°08'1110.7
2016-May-23 21:33N 38°39' W 010°11'1111.4
2016-May-23 20:33N 38°50' W 010°11'1211.9
2016-May-23 19:33N 39°02' W 010°11'1211.8
2016-May-23 18:32N 39°14' W 010°11'1111.1
2016-May-23 17:33N 39°25' W 010°12'1110.9
2016-May-23 16:33N 39°36' W 010°11'  
Track history (hours):
 
Tides and Currents Weather Stations Pressure Air Temp Water Temp Dewpoint Dewpoint Depression Visibility Wind Speed Wind Dir Waves Ship Positions

Geervliet

Last reported at 2016-May-31 15:33 UTC. Time now 2016-May-31 16:11 UTC.
Position N 37°41' E 024°31'.

Length 86 m; draft 4.3 m.

Type: Ship. MMSI: 246803000.

Date/timePositionNaut miles runAvg speedWind from/ knotsBaromVisibWave heightAir tempDewpointWater temp
2016-May-31 15:33N 37°41' E 024°31'1610.8
2016-May-31 14:05N 37°27' E 024°21'610.9
2016-May-31 13:33N 37°23' E 024°16'1110.8
2016-May-31 12:33N 37°15' E 024°07'1111.1
2016-May-31 11:33N 37°06' E 023°59'1111.1
2016-May-31 10:33N 36°57' E 023°50'1110.9
2016-May-31 09:33N 36°49' E 023°41'1111.0
2016-May-31 08:33N 36°40' E 023°33'1110.8
2016-May-31 07:33N 36°32' E 023°24'16110.7
2016-May-30 16:33N 36°20' E 020°05'1211.5
2016-May-30 15:29N 36°21' E 019°49'14611.2
2016-May-30 02:29N 36°23' E 016°48'1210.8
2016-May-30 01:23N 36°23' E 016°34'910.6
2016-May-30 00:33N 36°23' E 016°23'1110.6
2016-May-29 23:33N 36°23' E 016°10'2210.7
2016-May-29 21:30N 36°23' E 015°42'1011.0
2016-May-29 20:33N 36°24' E 015°29'1111.2
2016-May-29 19:33N 36°24' E 015°15'1111.5
2016-May-29 18:33N 36°25' E 015°01'1211.6
2016-May-29 17:33N 36°28' E 014°48'1111.2
2016-May-29 16:33N 36°31' E 014°34'1211.9
2016-May-29 15:33N 36°35' E 014°20'1212.0
2016-May-29 14:34N 36°38' E 014°06'1211.8
2016-May-29 13:33N 36°42' E 013°52'1211.9
2016-May-29 12:33N 36°45' E 013°37'1211.8
2016-May-29 11:32N 36°48' E 013°23'1111.6
2016-May-29 10:33N 36°52' E 013°09'1211.6
2016-May-29 09:29N 36°55' E 012°55'1111.6
2016-May-29 08:33N 36°59' E 012°42'7211.5
2016-May-29 02:15N 37°20' E 011°15'811.5
2016-May-29 01:33N 37°23' E 011°06'1110.9
2016-May-29 00:33N 37°26' E 010°52'1110.7
2016-May-28 23:32N 37°29' E 010°39'2311.0
2016-May-28 21:28N 37°33' E 010°11'1111.6
2016-May-28 20:33N 37°32' E 009°58'1211.6
2016-May-28 19:32N 37°29' E 009°44'1111.3
2016-May-28 18:32N 37°26' E 009°30'17511.0
2016-May-28 02:33N 37°12' E 005°50'8911.2
2016-May-27 18:33N 37°01' E 003°59'10111.2
2016-May-27 09:33N 36°48' E 001°54'2711.6
2016-May-27 07:11N 36°43' E 001°20'6711.9
2016-May-27 01:32N 36°32' W 000°03'1511.4
2016-May-27 00:13N 36°30' W 000°22'811.7
2016-May-26 23:32N 36°29' W 000°31'1211.9
2016-May-26 22:30N 36°27' W 000°47'21511.3
2016-May-26 03:27N 36°00' W 005°11'1213.6
2016-May-26 02:33N 35°58' W 005°26'1510.9
2016-May-26 01:12N 35°54' W 005°43'232 5.0
2016-May-24 02:33N 37°47' W 009°56'1010.5
2016-May-24 01:33N 37°57' W 009°59'1010.3
2016-May-24 00:33N 38°07' W 010°02'1110.8
2016-May-23 23:33N 38°17' W 010°05'1111.0
2016-May-23 22:33N 38°28' W 010°08'1110.7
2016-May-23 21:33N 38°39' W 010°11'1111.4
2016-May-23 20:33N 38°50' W 010°11'1211.9
2016-May-23 19:33N 39°02' W 010°11'1211.8
2016-May-23 18:32N 39°14' W 010°11'1111.1
2016-May-23 17:33N 39°25' W 010°12'1110.9
2016-May-23 16:33N 39°36' W 010°11'  

Dump ship's entire track history